createdAt,value
2022-12-12T00:02:18.559Z,30.73
2022-12-12T00:04:45.768Z,36.78
2022-12-12T00:07:12.617Z,34.65
2022-12-12T00:09:39.528Z,33.88
2022-12-12T00:12:06.624Z,41.22
2022-12-12T00:14:33.464Z,34.70
2022-12-12T00:17:00.516Z,41.38
2022-12-12T00:19:27.445Z,35.53
2022-12-12T00:21:54.315Z,37.42
2022-12-12T00:24:21.467Z,40.40
2022-12-12T00:26:48.324Z,37.20
2022-12-12T00:29:15.160Z,36.50
2022-12-12T00:31:42.083Z,35.55
2022-12-12T00:34:09.645Z,34.22
2022-12-12T00:36:36.520Z,36.03
2022-12-12T00:39:03.903Z,38.58
2022-12-12T00:41:30.789Z,42.58
2022-12-12T00:43:57.576Z,37.15
2022-12-12T00:46:25.993Z,38.45
2022-12-12T00:48:58.731Z,39.63
2022-12-12T00:51:27.599Z,38.15
2022-12-12T00:53:55.984Z,38.20
2022-12-12T00:56:24.253Z,35.65
2022-12-12T00:58:52.301Z,36.90
2022-12-12T01:01:23.789Z,41.53
2022-12-12T01:03:51.449Z,34.53
2022-12-12T01:06:18.414Z,38.72
2022-12-12T01:08:45.323Z,43.55
2022-12-12T01:11:13.623Z,39.28
2022-12-12T01:13:42.654Z,40.85
2022-12-12T01:16:10.650Z,39.00
2022-12-12T01:18:38.402Z,42.75
2022-12-12T01:21:12.981Z,42.78
2022-12-12T01:23:40.273Z,39.35
2022-12-12T01:26:13.851Z,37.85
2022-12-12T01:28:40.950Z,41.60
2022-12-12T01:31:09.163Z,42.08
2022-12-12T01:33:36.328Z,47.97
2022-12-12T01:36:03.381Z,42.80
2022-12-12T01:38:30.286Z,46.30
2022-12-12T01:40:57.115Z,47.55
2022-12-12T01:43:25.450Z,45.85
2022-12-12T01:45:58.500Z,45.92
2022-12-12T01:48:30.523Z,47.60
2022-12-12T01:51:00.043Z,43.05
2022-12-12T01:53:29.608Z,42.90
2022-12-12T01:55:57.666Z,49.13
2022-12-12T01:58:25.307Z,45.63
2022-12-12T02:00:52.475Z,50.15
2022-12-12T02:03:19.528Z,44.67
2022-12-12T02:05:53.390Z,44.05
2022-12-12T02:08:23.149Z,47.20
2022-12-12T02:10:50.390Z,48.00
2022-12-12T02:13:21.963Z,44.45
2022-12-12T02:16:12.352Z,46.35
2022-12-12T02:19:16.826Z,47.85
2022-12-12T02:22:08.672Z,40.72
2022-12-12T02:24:38.602Z,41.20
2022-12-12T02:27:23.687Z,49.95
2022-12-12T02:30:09.300Z,45.08
2022-12-12T02:35:08.380Z,46.53
2022-12-12T02:37:49.169Z,42.60
2022-12-12T02:40:26.722Z,44.33
2022-12-12T02:43:21.035Z,41.60
2022-12-12T02:46:04.550Z,40.05
2022-12-12T02:48:48.487Z,43.45
2022-12-12T02:51:19.471Z,45.95
2022-12-12T02:53:46.789Z,39.28
2022-12-12T02:56:43.182Z,42.83
2022-12-12T02:59:14.379Z,40.25
2022-12-12T03:02:06.032Z,48.28
2022-12-12T03:05:18.920Z,40.60
2022-12-12T03:08:00.804Z,44.17
2022-12-12T03:11:02.208Z,41.60
2022-12-12T03:13:52.535Z,40.38
2022-12-12T03:16:30.257Z,46.22
2022-12-12T03:19:05.834Z,44.75
2022-12-12T03:21:39.691Z,42.45
2022-12-12T03:24:14.630Z,43.55
2022-12-12T03:27:00.225Z,40.83
2022-12-12T03:32:07.566Z,42.03
2022-12-12T03:34:47.535Z,45.42
2022-12-12T03:37:24.977Z,40.78
2022-12-12T03:40:03.628Z,41.35
2022-12-12T03:43:04.807Z,44.85
2022-12-12T03:45:55.775Z,47.85
2022-12-12T03:48:36.580Z,43.38
2022-12-12T03:51:28.188Z,53.50
2022-12-12T03:54:28.010Z,51.63
2022-12-12T03:57:06.028Z,44.10
2022-12-12T03:59:49.233Z,52.58
2022-12-12T04:02:29.474Z,45.25
2022-12-12T04:05:28.679Z,51.70
2022-12-12T04:08:00.559Z,51.78
2022-12-12T04:10:50.106Z,46.38
2022-12-12T04:13:35.067Z,51.05
2022-12-12T04:16:01.936Z,50.83
2022-12-12T04:19:00.974Z,46.92
2022-12-12T04:22:01.054Z,50.20
2022-12-12T04:24:51.040Z,49.05
2022-12-12T04:27:42.616Z,55.10
2022-12-12T04:30:12.542Z,56.72
2022-12-12T04:33:01.394Z,53.85
2022-12-12T04:35:41.075Z,53.50
2022-12-12T04:38:17.521Z,55.70
2022-12-12T04:40:49.100Z,49.53
2022-12-12T04:43:35.900Z,49.85
2022-12-12T04:46:07.308Z,56.53
2022-12-12T04:48:43.743Z,48.20
2022-12-12T04:51:16.872Z,60.67
2022-12-12T04:54:00.156Z,58.20
2022-12-12T04:56:30.854Z,58.72
2022-12-12T04:58:58.530Z,55.28
2022-12-12T05:01:53.792Z,57.40
2022-12-12T05:04:29.304Z,51.60
2022-12-12T05:07:07.370Z,54.83
2022-12-12T05:09:35.627Z,54.15
2022-12-12T05:12:02.506Z,53.45
2022-12-12T05:14:31.438Z,51.83
2022-12-12T05:17:09.497Z,57.58
2022-12-12T05:19:36.477Z,54.55
2022-12-12T05:22:03.322Z,55.55
2022-12-12T05:24:31.326Z,53.72
2022-12-12T05:27:00.329Z,58.03
2022-12-12T05:29:27.244Z,60.50
2022-12-12T05:31:54.106Z,56.67
2022-12-12T05:34:21.003Z,53.72
2022-12-12T05:36:47.957Z,55.60
2022-12-12T05:39:14.969Z,53.55
2022-12-12T05:41:41.863Z,53.20
2022-12-12T05:44:08.803Z,55.15
2022-12-12T05:46:35.733Z,62.83
2022-12-12T05:49:02.628Z,61.78
2022-12-12T05:51:29.510Z,58.08
2022-12-12T05:53:56.330Z,56.22
2022-12-12T05:56:23.223Z,62.50
2022-12-12T05:58:50.158Z,60.47
2022-12-12T06:01:17.019Z,56.58
2022-12-12T06:03:43.993Z,61.83
2022-12-12T06:06:10.852Z,59.80
2022-12-12T06:08:37.795Z,62.08
2022-12-12T06:11:06.917Z,64.22
2022-12-12T06:13:33.906Z,66.63
2022-12-12T06:16:09.567Z,60.40
2022-12-12T06:18:36.982Z,62.25
2022-12-12T06:21:06.208Z,61.42
2022-12-12T06:23:37.539Z,56.20
2022-12-12T06:26:05.555Z,58.20
2022-12-12T06:28:32.891Z,63.38
2022-12-12T06:31:00.242Z,61.40
2022-12-12T06:33:27.669Z,57.28
2022-12-12T06:36:05.996Z,63.53
2022-12-12T06:38:33.382Z,61.53
2022-12-12T06:41:04.511Z,54.42
2022-12-12T06:43:31.392Z,68.55
2022-12-12T06:46:06.497Z,62.47
2022-12-12T06:51:09.142Z,61.80
2022-12-12T06:53:36.615Z,59.40
2022-12-12T06:56:24.830Z,63.50
2022-12-12T06:58:53.078Z,64.18
2022-12-12T07:01:21.919Z,58.20
2022-12-12T07:03:50.554Z,59.08
2022-12-12T07:06:19.691Z,64.63
2022-12-12T07:08:47.103Z,64.38
2022-12-12T07:11:17.078Z,71.55
2022-12-12T07:13:44.662Z,62.20
2022-12-12T07:16:12.061Z,66.07
2022-12-12T07:18:39.714Z,64.53
2022-12-12T07:21:09.235Z,64.25
2022-12-12T07:23:36.445Z,63.55
2022-12-12T07:26:05.300Z,62.67
2022-12-12T07:28:32.404Z,63.80
2022-12-12T07:31:01.301Z,59.42
2022-12-12T07:33:39.562Z,57.15
2022-12-12T07:36:10.290Z,67.47
2022-12-12T07:38:37.148Z,64.55
2022-12-12T07:41:10.112Z,67.70
2022-12-12T07:43:43.406Z,65.25
2022-12-12T07:46:17.558Z,59.57
2022-12-12T07:48:44.995Z,59.60
2022-12-12T07:51:12.271Z,59.55
2022-12-12T07:53:39.234Z,59.85
2022-12-12T07:56:07.459Z,57.90
2022-12-12T07:58:35.582Z,63.38
2022-12-12T08:01:14.676Z,61.28
2022-12-12T08:03:43.971Z,69.50
2022-12-12T08:06:11.471Z,67.82
2022-12-12T08:08:38.481Z,63.00
2022-12-12T08:11:10.689Z,65.05
2022-12-12T08:13:39.140Z,74.50
2022-12-12T08:16:08.031Z,69.43
2022-12-12T08:18:34.979Z,71.85
2022-12-12T08:21:02.206Z,62.28
2022-12-12T08:23:29.146Z,63.35
2022-12-12T08:25:55.998Z,62.33
2022-12-12T08:28:22.960Z,59.70
2022-12-12T08:30:51.030Z,63.55
2022-12-12T08:33:18.512Z,58.58
2022-12-12T08:35:45.659Z,59.72
2022-12-12T08:38:12.522Z,68.35
2022-12-12T08:40:39.772Z,53.30
2022-12-12T08:43:06.702Z,62.42
2022-12-12T08:45:33.688Z,62.35
2022-12-12T08:48:00.554Z,63.65
2022-12-12T08:50:27.396Z,67.63
2022-12-12T08:52:54.498Z,64.50
2022-12-12T08:55:21.687Z,63.20
2022-12-12T08:57:48.591Z,62.95
2022-12-12T09:00:16.176Z,65.97
2022-12-12T09:02:43.521Z,64.15
2022-12-12T09:05:11.088Z,74.97
2022-12-12T09:07:38.326Z,72.97
2022-12-12T09:10:06.374Z,67.10
2022-12-12T09:12:36.976Z,71.45
2022-12-12T09:15:09.089Z,72.25
2022-12-12T09:17:36.194Z,67.20
2022-12-12T09:20:03.685Z,82.53
2022-12-12T09:22:30.565Z,68.55
2022-12-12T09:24:57.722Z,70.53
2022-12-12T09:27:24.608Z,72.47
2022-12-12T09:29:51.537Z,79.07
2022-12-12T09:32:24.336Z,78.78
2022-12-12T09:34:52.049Z,75.50
2022-12-12T09:37:19.138Z,74.53
2022-12-12T09:39:46.054Z,70.32
2022-12-12T09:42:31.006Z,77.57
2022-12-12T09:45:05.105Z,74.90
2022-12-12T09:47:44.736Z,70.90
2022-12-12T09:50:31.909Z,73.55
2022-12-12T09:53:06.563Z,64.70
2022-12-12T09:55:50.436Z,53.92
2022-12-12T09:58:32.057Z,65.88
2022-12-12T10:01:19.754Z,63.13
2022-12-12T10:04:05.112Z,63.85
2022-12-12T10:06:43.831Z,58.75
2022-12-12T10:09:31.827Z,50.42
2022-12-12T10:12:04.943Z,48.53
2022-12-12T10:14:38.589Z,51.20
2022-12-12T10:17:15.683Z,56.70
2022-12-12T10:20:06.245Z,51.47
2022-12-12T10:22:43.771Z,51.22
2022-12-12T10:25:20.339Z,50.25
2022-12-12T10:27:51.123Z,48.35
2022-12-12T10:30:19.969Z,50.65
2022-12-12T10:33:04.658Z,51.40
2022-12-12T10:35:49.651Z,57.28
2022-12-12T10:38:22.380Z,51.95
2022-12-12T10:41:29.048Z,53.25
2022-12-12T10:44:01.842Z,67.15
2022-12-12T10:46:39.108Z,63.25
2022-12-12T10:49:22.826Z,62.17
2022-12-12T10:51:51.174Z,60.13
2022-12-12T10:54:21.385Z,53.58
2022-12-12T10:57:06.096Z,59.90
2022-12-12T10:59:58.389Z,44.50
2022-12-12T11:02:43.032Z,63.42
2022-12-12T11:05:16.009Z,70.20
2022-12-12T11:07:46.614Z,61.88
2022-12-12T11:10:33.439Z,63.60
2022-12-12T11:13:19.088Z,67.70
2022-12-12T11:15:52.876Z,58.65
2022-12-12T11:18:22.586Z,58.38
2022-12-12T11:20:51.168Z,57.42
2022-12-12T11:23:27.461Z,55.42
2022-12-12T11:26:00.989Z,51.58
2022-12-12T11:28:33.458Z,50.35
2022-12-12T11:31:04.359Z,47.25
2022-12-12T11:33:39.507Z,52.35
2022-12-12T11:36:07.081Z,46.45
2022-12-12T11:38:38.398Z,53.85
2022-12-12T11:41:11.736Z,46.08
2022-12-12T11:43:49.146Z,44.03
2022-12-12T11:46:18.863Z,41.17
2022-12-12T11:48:51.690Z,46.30
2022-12-12T11:51:32.708Z,40.22
2022-12-12T11:54:01.021Z,37.92
2022-12-12T11:56:27.807Z,44.85
2022-12-12T11:59:19.889Z,34.42
2022-12-12T12:01:49.614Z,36.28
2022-12-12T12:04:25.315Z,37.92
2022-12-12T12:06:54.988Z,41.33
2022-12-12T12:09:40.400Z,38.30
2022-12-12T12:12:21.338Z,37.58
2022-12-12T12:15:25.936Z,36.47
2022-12-12T12:18:01.800Z,42.05
2022-12-12T12:20:40.705Z,35.58
2022-12-12T12:23:23.047Z,35.55
2022-12-12T12:26:04.457Z,36.65
2022-12-12T12:28:31.333Z,37.80
2022-12-12T12:31:21.980Z,41.95
2022-12-12T12:34:13.346Z,36.85
2022-12-12T12:37:11.994Z,37.83
2022-12-12T12:40:05.637Z,40.70
2022-12-12T12:42:49.794Z,36.28
2022-12-12T12:45:25.615Z,36.65
2022-12-12T12:48:17.307Z,37.67
2022-12-12T12:50:50.672Z,33.55
2022-12-12T12:53:35.181Z,32.78
2022-12-12T12:56:12.084Z,40.05
2022-12-12T12:58:45.366Z,33.20
2022-12-12T13:01:29.173Z,44.25
2022-12-12T13:04:11.202Z,35.55
2022-12-12T13:07:01.375Z,32.95
2022-12-12T13:09:38.735Z,32.70
2022-12-12T13:12:58.090Z,29.77
2022-12-12T13:15:39.339Z,31.95
2022-12-12T13:18:14.909Z,30.00
2022-12-12T13:20:45.599Z,34.50
2022-12-12T13:23:15.181Z,26.33
2022-12-12T13:25:46.208Z,29.85
2022-12-12T13:28:25.560Z,32.08
2022-12-12T13:31:20.169Z,31.52
2022-12-12T13:33:52.526Z,35.70
2022-12-12T13:36:29.661Z,27.08
2022-12-12T13:39:01.295Z,29.30
2022-12-12T13:41:56.022Z,26.67
2022-12-12T13:44:44.612Z,28.00
2022-12-12T13:47:34.747Z,29.02
2022-12-12T13:50:06.580Z,40.00
2022-12-12T13:52:38.040Z,29.90
2022-12-12T13:55:14.115Z,30.10
2022-12-12T13:58:00.076Z,30.73
2022-12-12T14:00:35.458Z,33.35
2022-12-12T14:05:43.934Z,29.00
2022-12-12T14:08:10.738Z,26.50
2022-12-12T14:10:45.042Z,28.05
2022-12-12T14:13:36.982Z,32.15
2022-12-12T14:16:07.723Z,32.75
2022-12-12T14:19:04.797Z,28.80
2022-12-12T14:21:45.389Z,38.67
2022-12-12T14:24:34.304Z,33.97
2022-12-12T14:27:02.516Z,29.02
2022-12-12T14:29:32.473Z,28.52
2022-12-12T14:32:05.573Z,29.10
2022-12-12T14:34:59.285Z,29.15
2022-12-12T14:38:05.515Z,30.85
2022-12-12T14:40:40.364Z,28.75
2022-12-12T14:43:21.843Z,33.25
2022-12-12T14:45:49.554Z,25.83
2022-12-12T14:48:16.941Z,23.88
2022-12-12T14:50:51.666Z,26.67
2022-12-12T14:53:38.174Z,26.20
2022-12-12T14:56:12.208Z,24.73
2022-12-12T14:58:42.161Z,26.80
2022-12-12T15:01:09.613Z,27.83
2022-12-12T15:03:43.766Z,26.60
2022-12-12T15:06:23.430Z,29.20
2022-12-12T15:08:55.661Z,28.88
2022-12-12T15:11:32.669Z,32.00
2022-12-12T15:14:03.564Z,29.80
2022-12-12T15:16:48.350Z,30.60
2022-12-12T15:19:28.732Z,29.63
2022-12-12T15:21:56.871Z,30.45
2022-12-12T15:24:27.354Z,26.50
2022-12-12T15:26:56.839Z,29.17
2022-12-12T15:29:29.066Z,29.60
2022-12-12T15:32:09.412Z,30.48
2022-12-12T15:34:42.527Z,34.35
2022-12-12T15:37:31.546Z,28.55
2022-12-12T15:40:13.466Z,28.48
2022-12-12T15:42:44.704Z,28.25
2022-12-12T15:45:20.856Z,33.90
2022-12-12T15:47:48.206Z,38.58
2022-12-12T15:50:19.532Z,30.40
2022-12-12T15:52:57.736Z,31.58
2022-12-12T15:55:24.863Z,32.97
2022-12-12T15:57:52.705Z,34.10
2022-12-12T16:00:32.592Z,39.80
2022-12-12T16:03:11.713Z,33.88
2022-12-12T16:05:39.206Z,31.58
2022-12-12T16:08:39.176Z,34.08
2022-12-12T16:11:36.862Z,35.42
2022-12-12T16:14:05.153Z,36.20
2022-12-12T16:16:36.895Z,31.80
2022-12-12T16:19:05.609Z,35.17
2022-12-12T16:21:34.394Z,29.85
2022-12-12T16:24:12.964Z,31.17
2022-12-12T16:26:39.853Z,29.10
2022-12-12T16:29:06.677Z,31.10
2022-12-12T16:31:33.692Z,35.55
2022-12-12T16:34:03.548Z,31.90
2022-12-12T16:36:30.815Z,34.20
2022-12-12T16:38:57.667Z,31.40
2022-12-12T16:41:24.652Z,36.83
2022-12-12T16:43:51.468Z,36.97
2022-12-12T16:46:23.743Z,39.58
2022-12-12T16:48:51.477Z,30.90
2022-12-12T16:51:27.014Z,31.98
2022-12-12T16:53:54.430Z,30.08
2022-12-12T16:56:21.300Z,34.33
2022-12-12T16:58:48.284Z,32.90
2022-12-12T17:01:17.043Z,36.10
2022-12-12T17:03:44.090Z,32.03
2022-12-12T17:06:11.161Z,28.13
2022-12-12T17:08:38.664Z,32.38
2022-12-12T17:11:09.656Z,35.85
2022-12-12T17:13:41.068Z,38.03
2022-12-12T17:16:08.041Z,39.03
2022-12-12T17:18:34.878Z,38.72
2022-12-12T17:21:01.724Z,37.80
2022-12-12T17:23:29.468Z,45.65
2022-12-12T17:26:03.165Z,50.83
2022-12-12T17:28:33.538Z,51.88
2022-12-12T17:31:00.901Z,46.78
2022-12-12T17:33:27.760Z,59.13
2022-12-12T17:36:05.639Z,43.03
2022-12-12T17:38:33.542Z,41.47
2022-12-12T17:41:04.264Z,47.80
2022-12-12T17:43:31.259Z,44.97
2022-12-12T17:46:01.026Z,39.72
2022-12-12T17:48:33.190Z,46.13
2022-12-12T17:51:02.700Z,42.15
2022-12-12T17:53:32.342Z,45.03
2022-12-12T17:56:01.735Z,41.60
2022-12-12T17:58:41.432Z,44.72
2022-12-12T18:01:15.672Z,45.13
2022-12-12T18:03:44.134Z,42.90
2022-12-12T18:06:11.508Z,65.15
2022-12-12T18:08:39.156Z,77.28
2022-12-12T18:11:08.806Z,77.57
2022-12-12T18:13:36.273Z,78.72
2022-12-12T18:16:03.392Z,67.78
2022-12-12T18:18:30.507Z,70.70
2022-12-12T18:21:03.855Z,64.70
2022-12-12T18:23:31.397Z,55.58
2022-12-12T18:26:06.466Z,48.47
2022-12-12T18:28:33.909Z,54.38
2022-12-12T18:31:01.586Z,57.25
2022-12-12T18:33:28.738Z,47.55
2022-12-12T18:36:08.758Z,57.65
2022-12-12T18:38:36.316Z,51.17
2022-12-12T18:41:03.889Z,46.80
2022-12-12T18:43:31.640Z,50.47
2022-12-12T18:46:03.966Z,47.58
2022-12-12T18:48:31.063Z,45.33
2022-12-12T18:51:07.917Z,53.80
2022-12-12T18:53:35.193Z,63.10
2022-12-12T18:56:07.497Z,74.97
2022-12-12T18:58:36.508Z,70.43
2022-12-12T19:01:08.527Z,61.85
2022-12-12T19:03:37.127Z,93.32
2022-12-12T19:06:15.704Z,93.55
2022-12-12T19:08:43.291Z,88.03
2022-12-12T19:11:11.035Z,91.45
2022-12-12T19:13:38.620Z,81.57
2022-12-12T19:16:08.020Z,59.20
2022-12-12T19:18:35.448Z,60.53
2022-12-12T19:21:06.238Z,62.28
2022-12-12T19:23:34.512Z,49.53
2022-12-12T19:26:06.114Z,49.80
2022-12-12T19:28:33.136Z,54.50
2022-12-12T19:31:00.451Z,48.88
2022-12-12T19:33:27.621Z,48.95
2022-12-12T19:35:54.485Z,46.83
2022-12-12T19:38:24.483Z,48.90
2022-12-12T19:40:51.808Z,54.17
2022-12-12T19:43:18.645Z,53.70
2022-12-12T19:45:45.683Z,45.72
2022-12-12T19:48:12.600Z,49.88
2022-12-12T19:50:39.572Z,46.35
2022-12-12T19:53:06.403Z,44.67
2022-12-12T19:55:33.382Z,49.15
2022-12-12T19:58:02.449Z,48.90
2022-12-12T20:00:29.350Z,51.53
2022-12-12T20:02:56.189Z,49.72
2022-12-12T20:05:23.073Z,54.25
2022-12-12T20:07:49.922Z,51.05
2022-12-12T20:10:17.414Z,48.47
2022-12-12T20:12:56.115Z,51.40
2022-12-12T20:15:25.131Z,47.60
2022-12-12T20:17:51.995Z,47.60
2022-12-12T20:20:19.714Z,49.75
2022-12-12T20:22:46.558Z,44.92
2022-12-12T20:25:13.485Z,50.55
2022-12-12T20:27:40.303Z,47.25
2022-12-12T20:30:11.038Z,50.00
2022-12-12T20:32:38.035Z,50.75
2022-12-12T20:35:05.617Z,46.00
2022-12-12T20:37:33.477Z,51.55
2022-12-12T20:40:02.433Z,54.05
2022-12-12T20:42:29.330Z,56.20
2022-12-12T20:44:56.141Z,57.92
2022-12-12T20:47:23.166Z,52.15
2022-12-12T20:49:51.024Z,49.70
2022-12-12T20:52:20.503Z,56.20
2022-12-12T20:54:47.321Z,53.08
2022-12-12T20:57:14.173Z,51.70
2022-12-12T20:59:41.110Z,50.65
2022-12-12T21:02:08.008Z,48.40
2022-12-12T21:04:35.331Z,53.08
2022-12-12T21:07:02.233Z,48.53
2022-12-12T21:09:29.095Z,54.78
2022-12-12T21:11:58.026Z,50.25
2022-12-12T21:14:26.841Z,52.60
2022-12-12T21:16:54.420Z,48.17
2022-12-12T21:19:22.744Z,51.15
2022-12-12T21:21:50.495Z,58.40
2022-12-12T21:24:18.123Z,52.83
2022-12-12T21:26:46.330Z,57.40
2022-12-12T21:29:13.648Z,55.95
2022-12-12T21:31:50.460Z,52.35
2022-12-12T21:34:19.412Z,56.30
2022-12-12T21:36:46.268Z,58.20
2022-12-12T21:39:13.406Z,52.13
2022-12-12T21:41:43.817Z,57.90
2022-12-12T21:44:10.844Z,55.60
2022-12-12T21:46:41.673Z,53.35
2022-12-12T21:49:26.107Z,59.13
2022-12-12T21:51:59.072Z,61.80
2022-12-12T21:54:27.058Z,72.38
2022-12-12T21:56:55.975Z,65.15
2022-12-12T21:59:24.552Z,70.15
2022-12-12T22:01:53.920Z,65.13
2022-12-12T22:04:20.894Z,66.28
2022-12-12T22:06:47.757Z,74.07
2022-12-12T22:09:14.950Z,68.57
2022-12-12T22:11:48.292Z,71.15
2022-12-12T22:14:18.723Z,67.00
2022-12-12T22:16:45.640Z,67.32
2022-12-12T22:19:14.307Z,65.50
2022-12-12T22:21:41.563Z,62.88
2022-12-12T22:24:08.756Z,64.75
2022-12-12T22:26:38.573Z,57.80
2022-12-12T22:29:08.260Z,54.30
2022-12-12T22:31:37.637Z,60.70
2022-12-12T22:34:07.613Z,58.30
2022-12-12T22:36:36.982Z,62.22
2022-12-12T22:39:05.961Z,57.17
2022-12-12T22:41:32.828Z,57.25
2022-12-12T22:44:04.612Z,57.60
2022-12-12T22:46:32.553Z,56.13
2022-12-12T22:49:01.619Z,61.63
2022-12-12T22:51:31.672Z,54.97
2022-12-12T22:54:00.872Z,54.70
2022-12-12T22:56:30.600Z,59.85
2022-12-12T22:58:57.619Z,53.70
2022-12-12T23:01:27.183Z,50.60
2022-12-12T23:03:54.308Z,50.00
2022-12-12T23:06:24.626Z,52.25
2022-12-12T23:08:58.318Z,51.58
2022-12-12T23:11:27.356Z,52.40
2022-12-12T23:14:06.582Z,53.83
2022-12-12T23:16:37.137Z,50.60
2022-12-12T23:19:05.948Z,54.40
2022-12-12T23:21:34.056Z,56.40
2022-12-12T23:24:01.783Z,53.90
2022-12-12T23:26:30.437Z,51.63
2022-12-12T23:28:59.193Z,52.92
2022-12-12T23:31:31.955Z,50.05
2022-12-12T23:34:01.588Z,48.88
2022-12-12T23:36:29.079Z,46.05
2022-12-12T23:38:57.725Z,51.05
2022-12-12T23:41:25.278Z,57.97
2022-12-12T23:43:52.810Z,49.10
2022-12-12T23:46:29.458Z,49.40
2022-12-12T23:49:08.852Z,45.75
2022-12-12T23:51:39.699Z,51.83
2022-12-12T23:54:09.516Z,48.65
2022-12-12T23:56:36.865Z,50.08
2022-12-12T23:59:04.015Z,48.40
